Oglasa — ITMG — position and weather

sailwx.info

Track history (hours):
 
Tides and Currents Weather Stations Pressure Air Temp Water Temp Dewpoint Dewpoint Depression Visibility Wind Speed Wind Dir Waves Ship Positions

Oglasa

Last reported at 2016-Jul-24 17:34 UTC. Time now 2016-Jul-24 20:26 UTC.
Position N 42°53' E 010°27'.

Length 91 m; draft 3.8 m.

Type: Ship. MMSI: 247046800.

Date/timePositionNaut miles runAvg speedWind from/ knotsBaromVisibWave heightAir tempDewpointWater temp
2016-Jul-24 17:34N 42°53' E 010°27'7 6.3
2016-Jul-24 16:28N 42°49' E 010°20'7 3.5
2016-Jul-24 14:34N 42°53' E 010°26'5 4.0
2016-Jul-24 13:21N 42°50' E 010°21'5 2.6
2016-Jul-24 11:33N 42°53' E 010°26'6 5.5
2016-Jul-24 10:32N 42°49' E 010°21'11 8.0
2016-Jul-24 09:06N 42°56' E 010°33'611.3
2016-Jul-24 08:34N 42°53' E 010°26'6 6.2
2016-Jul-24 07:33N 42°49' E 010°20'12 9.4
2016-Jul-24 06:16N 42°56' E 010°33'5 7.2
2016-Jul-24 05:33N 42°53' E 010°27'7 6.6
2016-Jul-24 04:29N 42°49' E 010°19'7 0.7
2016-Jul-23 17:33N 42°53' E 010°27'7 6.8
2016-Jul-23 16:30N 42°49' E 010°19'7 3.5
2016-Jul-23 14:33N 42°53' E 010°27'7 5.8
2016-Jul-23 13:26N 42°49' E 010°20'0 0.1
2016-Jul-23 10:27N 42°49' E 010°20'7 3.5
2016-Jul-23 08:34N 42°53' E 010°26'7 6.3
2016-Jul-23 07:30N 42°49' E 010°20'1 0.4
2016-Jul-23 04:23N 42°49' E 010°21'5 0.5
2016-Jul-22 17:33N 42°53' E 010°26'6 6.4
2016-Jul-22 16:33N 42°49' E 010°19'6 3.2
2016-Jul-22 14:33N 42°53' E 010°26'6 6.3
2016-Jul-22 13:32N 42°49' E 010°19'7 3.6
2016-Jul-22 11:33N 42°53' E 010°27'7 6.9
2016-Jul-22 10:32N 42°49' E 010°19'6 3.2
2016-Jul-22 08:33N 42°53' E 010°26'6 6.2
2016-Jul-22 07:32N 42°49' E 010°19'7 3.5
2016-Jul-22 05:34N 42°53' E 010°27'7 7.1
2016-Jul-22 04:34N 42°49' E 010°19'1212.5
2016-Jul-22 03:34N 42°56' E 010°33'10 0.8
2016-Jul-21 15:17N 42°50' E 010°22'2 3.1
2016-Jul-21 14:33N 42°49' E 010°19'6 3.1
2016-Jul-21 12:33N 42°53' E 010°26'6 5.6
2016-Jul-21 11:27N 42°49' E 010°20'5 2.3
2016-Jul-21 09:26N 42°52' E 010°23'5 5.1
2016-Jul-21 08:32N 42°49' E 010°19'7 2.3
2016-Jul-21 05:34N 42°53' E 010°26'7 6.8
2016-Jul-21 04:33N 42°49' E 010°19'7 0.5
2016-Jul-20 15:34N 42°53' E 010°27'7 6.4
2016-Jul-20 14:30N 42°49' E 010°20'6 3.3
2016-Jul-20 12:34N 42°53' E 010°26'6 6.2
2016-Jul-20 11:32N 42°49' E 010°19'7 3.3
2016-Jul-20 09:34N 42°53' E 010°26'7 6.1
2016-Jul-20 08:30N 42°49' E 010°20'7 2.3
2016-Jul-20 05:33N 42°53' E 010°26'7 6.8
2016-Jul-20 04:33N 42°49' E 010°19'7 0.5
2016-Jul-19 15:33N 42°53' E 010°26'7 6.3
2016-Jul-19 14:31N 42°49' E 010°19'7 3.5
2016-Jul-19 12:33N 42°53' E 010°27'7 6.8
2016-Jul-19 11:32N 42°49' E 010°19'7 3.4
2016-Jul-19 09:33N 42°53' E 010°26'7 6.3
2016-Jul-19 08:30N 42°49' E 010°19'0 0.0
2016-Jul-19 04:33N 42°49' E 010°19'1211.4
2016-Jul-19 03:29N 42°56' E 010°33'0 0.0
2016-Jul-19 02:28N 42°56' E 010°33'0 0.0
2016-Jul-19 01:33N 42°56' E 010°33'5 0.7
2016-Jul-18 17:34N 42°53' E 010°27'7 6.7
2016-Jul-18 16:33N 42°49' E 010°19'5 2.4
2016-Jul-18 14:26N 42°52' E 010°24'5 5.7
2016-Jul-18 13:33N 42°49' E 010°19'12 8.1
2016-Jul-18 12:04N 42°56' E 010°33'510.0
2016-Jul-18 11:33N 42°53' E 010°27'7 6.3
2016-Jul-18 10:27N 42°49' E 010°20'7 3.5
2016-Jul-18 08:33N 42°53' E 010°26'6 5.6
2016-Jul-18 07:25N 42°49' E 010°20'7 3.5
2016-Jul-18 05:33N 42°53' E 010°27'7 7.0
2016-Jul-18 04:33N 42°49' E 010°19'7 0.6
2016-Jul-17 17:33N 42°53' E 010°26'6 6.3
2016-Jul-17 16:32N 42°49' E 010°19'6 2.8
2016-Jul-17 14:30N 42°53' E 010°25'6 5.9
2016-Jul-17 13:32N 42°49' E 010°19'6 1.1
2016-Jul-17 08:29N 42°53' E 010°25'6 1.4
2016-Jul-17 04:25N 42°49' E 010°20'7 0.6
2016-Jul-16 17:33N 42°53' E 010°26'7 6.1
2016-Jul-16 16:27N 42°49' E 010°20'1213.8
2016-Jul-16 15:34N 42°56' E 010°33'5 5.1
2016-Jul-16 14:34N 42°53' E 010°27'7 7.1
2016-Jul-16 13:32N 42°49' E 010°19'7 3.5
2016-Jul-16 11:33N 42°53' E 010°27'6 4.7
2016-Jul-16 10:22N 42°49' E 010°21'1 0.0
2016-Jul-15 04:26N 42°49' E 010°20'  
Track history (hours):
 
Tides and Currents Weather Stations Pressure Air Temp Water Temp Dewpoint Dewpoint Depression Visibility Wind Speed Wind Dir Waves Ship Positions

Oglasa

Last reported at 2016-Jul-24 17:34 UTC. Time now 2016-Jul-24 20:26 UTC.
Position N 42°53' E 010°27'.

Length 91 m; draft 3.8 m.

Type: Ship. MMSI: 247046800.

Date/timePositionNaut miles runAvg speedWind from/ knotsBaromVisibWave heightAir tempDewpointWater temp
2016-Jul-24 17:34N 42°53' E 010°27'7 6.3
2016-Jul-24 16:28N 42°49' E 010°20'7 3.5
2016-Jul-24 14:34N 42°53' E 010°26'5 4.0
2016-Jul-24 13:21N 42°50' E 010°21'5 2.6
2016-Jul-24 11:33N 42°53' E 010°26'6 5.5
2016-Jul-24 10:32N 42°49' E 010°21'11 8.0
2016-Jul-24 09:06N 42°56' E 010°33'611.3
2016-Jul-24 08:34N 42°53' E 010°26'6 6.2
2016-Jul-24 07:33N 42°49' E 010°20'12 9.4
2016-Jul-24 06:16N 42°56' E 010°33'5 7.2
2016-Jul-24 05:33N 42°53' E 010°27'7 6.6
2016-Jul-24 04:29N 42°49' E 010°19'7 0.7
2016-Jul-23 17:33N 42°53' E 010°27'7 6.8
2016-Jul-23 16:30N 42°49' E 010°19'7 3.5
2016-Jul-23 14:33N 42°53' E 010°27'7 5.8
2016-Jul-23 13:26N 42°49' E 010°20'0 0.1
2016-Jul-23 10:27N 42°49' E 010°20'7 3.5
2016-Jul-23 08:34N 42°53' E 010°26'7 6.3
2016-Jul-23 07:30N 42°49' E 010°20'1 0.4
2016-Jul-23 04:23N 42°49' E 010°21'5 0.5
2016-Jul-22 17:33N 42°53' E 010°26'6 6.4
2016-Jul-22 16:33N 42°49' E 010°19'6 3.2
2016-Jul-22 14:33N 42°53' E 010°26'6 6.3
2016-Jul-22 13:32N 42°49' E 010°19'7 3.6
2016-Jul-22 11:33N 42°53' E 010°27'7 6.9
2016-Jul-22 10:32N 42°49' E 010°19'6 3.2
2016-Jul-22 08:33N 42°53' E 010°26'6 6.2
2016-Jul-22 07:32N 42°49' E 010°19'7 3.5
2016-Jul-22 05:34N 42°53' E 010°27'7 7.1
2016-Jul-22 04:34N 42°49' E 010°19'1212.5
2016-Jul-22 03:34N 42°56' E 010°33'10 0.8
2016-Jul-21 15:17N 42°50' E 010°22'2 3.1
2016-Jul-21 14:33N 42°49' E 010°19'6 3.1
2016-Jul-21 12:33N 42°53' E 010°26'6 5.6
2016-Jul-21 11:27N 42°49' E 010°20'5 2.3
2016-Jul-21 09:26N 42°52' E 010°23'5 5.1
2016-Jul-21 08:32N 42°49' E 010°19'7 2.3
2016-Jul-21 05:34N 42°53' E 010°26'7 6.8
2016-Jul-21 04:33N 42°49' E 010°19'7 0.5
2016-Jul-20 15:34N 42°53' E 010°27'7 6.4
2016-Jul-20 14:30N 42°49' E 010°20'6 3.3
2016-Jul-20 12:34N 42°53' E 010°26'6 6.2
2016-Jul-20 11:32N 42°49' E 010°19'7 3.3
2016-Jul-20 09:34N 42°53' E 010°26'7 6.1
2016-Jul-20 08:30N 42°49' E 010°20'7 2.3
2016-Jul-20 05:33N 42°53' E 010°26'7 6.8
2016-Jul-20 04:33N 42°49' E 010°19'7 0.5
2016-Jul-19 15:33N 42°53' E 010°26'7 6.3
2016-Jul-19 14:31N 42°49' E 010°19'7 3.5
2016-Jul-19 12:33N 42°53' E 010°27'7 6.8
2016-Jul-19 11:32N 42°49' E 010°19'7 3.4
2016-Jul-19 09:33N 42°53' E 010°26'7 6.3
2016-Jul-19 08:30N 42°49' E 010°19'0 0.0
2016-Jul-19 04:33N 42°49' E 010°19'1211.4
2016-Jul-19 03:29N 42°56' E 010°33'0 0.0
2016-Jul-19 02:28N 42°56' E 010°33'0 0.0
2016-Jul-19 01:33N 42°56' E 010°33'5 0.7
2016-Jul-18 17:34N 42°53' E 010°27'7 6.7
2016-Jul-18 16:33N 42°49' E 010°19'5 2.4
2016-Jul-18 14:26N 42°52' E 010°24'5 5.7
2016-Jul-18 13:33N 42°49' E 010°19'12 8.1
2016-Jul-18 12:04N 42°56' E 010°33'510.0
2016-Jul-18 11:33N 42°53' E 010°27'7 6.3
2016-Jul-18 10:27N 42°49' E 010°20'7 3.5
2016-Jul-18 08:33N 42°53' E 010°26'6 5.6
2016-Jul-18 07:25N 42°49' E 010°20'7 3.5
2016-Jul-18 05:33N 42°53' E 010°27'7 7.0
2016-Jul-18 04:33N 42°49' E 010°19'7 0.6
2016-Jul-17 17:33N 42°53' E 010°26'6 6.3
2016-Jul-17 16:32N 42°49' E 010°19'6 2.8
2016-Jul-17 14:30N 42°53' E 010°25'6 5.9
2016-Jul-17 13:32N 42°49' E 010°19'6 1.1
2016-Jul-17 08:29N 42°53' E 010°25'6 1.4
2016-Jul-17 04:25N 42°49' E 010°20'7 0.6
2016-Jul-16 17:33N 42°53' E 010°26'7 6.1
2016-Jul-16 16:27N 42°49' E 010°20'1213.8
2016-Jul-16 15:34N 42°56' E 010°33'5 5.1
2016-Jul-16 14:34N 42°53' E 010°27'7 7.1
2016-Jul-16 13:32N 42°49' E 010°19'7 3.5
2016-Jul-16 11:33N 42°53' E 010°27'6 4.7
2016-Jul-16 10:22N 42°49' E 010°21'1 0.0
2016-Jul-15 04:26N 42°49' E 010°20'  

Dump ship's entire track history